Time;durP1;ratioP1;P1;durP2;ratioP2;P2;SDS_P1;SDS_P2;PMS_P1;PMS_P2;Temp;Humidity;BMP_temperature;BMP_pressure;BME280_temperature;BME280_humidity;BME280_pressure;Samples;Min_cycle;Max_cycle;Signal;HPM_P1;HPM_P2
2021/07/21 05:30:18;;;;;;;5.20;3.70;;;;;;;19.36;69.56;100480.90;1762674;78;27482;31
2021/07/21 05:32:44;;;;;;;;;;;;;;;19.47;69.43;100483.05;1728361;82;25831;-72
2021/07/21 05:35:12;;;;;;;9.48;4.00;;;;;;;19.62;69.65;100484.87;1734482;82;25773;-72
2021/07/21 05:37:39;;;;;;;4.40;3.70;;;;;;;19.72;69.30;100487.00;1748689;81;27914;-72
2021/07/21 05:40:08;;;;;;;10.18;4.20;;;;;;;19.88;69.33;100491.02;1735548;81;25660;-71
2021/07/21 05:42:34;;;;;;;4.97;3.63;;;;;;;20.05;68.73;100495.20;1734525;82;25836;-72
2021/07/21 05:45:01;;;;;;;5.67;3.80;;;;;;;20.18;68.12;100494.44;1735173;82;27816;-72
2021/07/21 05:47:27;;;;;;;7.12;4.30;;;;;;;20.35;68.09;100493.11;1733872;82;25615;-71
2021/07/21 05:49:53;;;;;;;5.70;3.90;;;;;;;20.49;67.48;100496.05;1732248;82;27567;-73
2021/07/21 05:52:21;;;;;;;4.60;3.40;;;;;;;20.62;67.06;100488.41;1734354;82;25521;-73
2021/07/21 05:54:49;;;;;;;8.28;3.50;;;;;;;20.73;66.44;100494.03;1727624;82;25671;-72
2021/07/21 05:57:16;;;;;;;9.50;3.60;;;;;;;20.84;66.33;100503.22;1729305;81;25605;-73
2021/07/21 05:59:44;;;;;;;6.05;3.00;;;;;;;21.01;66.05;100499.10;1738949;81;25543;-73
2021/07/21 06:02:11;;;;;;;6.47;3.83;;;;;;;21.14;65.36;100501.59;1735436;81;27908;-73
2021/07/21 06:04:37;;;;;;;7.17;3.52;;;;;;;21.30;65.37;100512.36;1730758;81;25675;-73
2021/07/21 06:07:06;;;;;;;10.35;3.42;;;;;;;21.47;64.99;100508.24;1733193;81;25539;-73
2021/07/21 06:09:32;;;;;;;5.80;3.72;;;;;;;21.63;64.82;100511.55;1738385;81;25579;-73
2021/07/21 06:11:58;;;;;;;10.35;4.47;;;;;;;21.84;64.64;100504.06;1734175;81;25509;-73
2021/07/21 06:14:26;;;;;;;7.78;3.77;;;;;;;22.00;64.01;100513.45;1734296;81;27494;-72
2021/07/21 06:16:53;;;;;;;4.90;3.65;;;;;;;22.16;63.63;100518.08;1734150;81;25477;-65
2021/07/21 06:19:20;;;;;;;5.15;3.45;;;;;;;22.30;62.92;100516.62;1696628;83;25508;-66
2021/07/21 06:21:46;;;;;;;6.58;3.45;;;;;;;22.42;61.72;100516.91;1749012;81;25632;-65
2021/07/21 06:24:12;;;;;;;6.15;3.47;;;;;;;22.53;61.57;100513.04;1749103;81;25530;-73
2021/07/21 06:26:39;;;;;;;6.80;3.30;;;;;;;22.70;61.16;100519.04;1751082;81;27412;-73
2021/07/21 06:29:06;;;;;;;6.60;3.60;;;;;;;22.86;60.88;100511.22;1749408;81;25540;-73
2021/07/21 06:31:32;;;;;;;9.33;5.37;;;;;;;23.02;60.26;100519.17;1749496;81;25463;-73
2021/07/21 06:33:59;;;;;;;13.43;8.95;;;;;;;23.16;59.43;100517.08;1750971;81;25602;-73
2021/07/21 06:36:25;;;;;;;6.90;3.58;;;;;;;23.30;58.66;100529.53;1750518;81;25510;-73
2021/07/21 06:38:53;;;;;;;7.35;4.40;;;;;;;23.44;58.55;100527.39;1750705;81;27351;-73
2021/07/21 06:41:19;;;;;;;51.48;48.38;;;;;;;23.59;58.26;100521.91;1749482;81;25926;-73
2021/07/21 06:43:47;;;;;;;5.70;3.60;;;;;;;23.79;57.71;100527.84;1751035;81;25570;-73
2021/07/21 06:46:14;;;;;;;6.37;3.42;;;;;;;23.91;57.18;100528.08;1721464;81;25673;-73
2021/07/21 06:48:40;;;;;;;4.97;4.03;;;;;;;24.06;57.06;100532.42;1745946;81;25538;-73
2021/07/21 06:51:07;;;;;;;5.45;3.15;;;;;;;24.17;56.26;100529.03;1751532;81;27324;-73
2021/07/21 06:53:33;;;;;;;4.35;3.10;;;;;;;24.31;55.72;100530.20;1752558;81;25541;-73
2021/07/21 06:56:00;;;;;;;7.97;4.00;;;;;;;24.45;55.69;100534.34;1752519;81;25542;-73
2021/07/21 06:58:27;;;;;;;7.58;3.80;;;;;;;24.59;55.23;100530.18;1750151;81;26341;-73
2021/07/21 07:00:53;;;;;;;66.42;62.40;;;;;;;24.76;54.92;100523.62;1750595;81;25546;-73
2021/07/21 07:03:20;;;;;;;6.45;3.80;;;;;;;24.93;54.45;100533.81;1753811;80;27314;-73
2021/07/21 07:05:48;;;;;;;6.33;3.40;;;;;;;25.04;53.39;100535.14;1749481;81;25517;-73
2021/07/21 07:08:15;;;;;;;6.83;3.60;;;;;;;25.15;53.69;100533.13;1721214;81;25903;-73
2021/07/21 07:10:41;;;;;;;4.85;3.55;;;;;;;25.30;53.19;100535.26;1746389;81;25833;-73
2021/07/21 07:13:08;;;;;;;6.28;3.42;;;;;;;25.51;53.31;100533.55;1751128;81;25522;-74
2021/07/21 07:15:34;;;;;;;5.95;4.37;;;;;;;25.68;52.87;100536.78;1749588;81;27318;-74
2021/07/21 07:18:01;;;;;;;4.80;3.35;;;;;;;25.89;52.60;100537.20;1745714;81;25506;-73
2021/07/21 07:20:28;;;;;;;6.62;3.83;;;;;;;26.06;52.07;100545.22;1753193;81;25538;-74
2021/07/21 07:22:54;;;;;;;7.65;3.80;;;;;;;26.23;51.66;100539.32;1750661;81;25620;-73
2021/07/21 07:25:21;;;;;;;9.20;4.08;;;;;;;26.42;50.95;100536.55;1751579;81;25543;-74
2021/07/21 07:27:47;;;;;;;7.87;3.80;;;;;;;26.61;50.90;100544.09;1723155;81;28050;-73
2021/07/21 07:30:14;;;;;;;9.65;4.10;;;;;;;26.76;49.83;100541.98;1753526;81;25158;-72
2021/07/21 07:32:42;;;;;;;9.55;4.30;;;;;;;26.91;49.20;100542.59;1754034;81;25801;-74
2021/07/21 07:35:09;;;;;;;5.62;3.58;;;;;;;27.08;48.69;100536.02;1753911;81;26276;-73
2021/07/21 07:37:36;;;;;;;8.80;4.25;;;;;;;27.25;48.71;100549.48;1754279;81;25846;-74
2021/07/21 07:40:04;;;;;;;9.60;3.92;;;;;;;27.33;47.84;100534.95;1701285;83;27324;-73
2021/07/21 07:42:31;;;;;;;6.85;3.85;;;;;;;27.37;47.07;100528.72;1739808;82;25214;-73
2021/07/21 07:44:58;;;;;;;8.18;5.60;;;;;;;27.43;47.37;100527.64;1740886;82;25517;-73
2021/07/21 07:47:24;;;;;;;8.35;5.03;;;;;;;27.60;47.54;100534.13;1741691;82;26136;-74
2021/07/21 07:49:51;;;;;;;7.08;3.98;;;;;;;27.82;47.38;100538.17;1755094;81;25557;-73
2021/07/21 07:52:18;;;;;;;4.53;3.55;;;;;;;28.10;46.26;100534.75;1753793;81;28117;-65
2021/07/21 07:54:44;;;;;;;7.10;4.20;;;;;;;28.11;45.80;100535.72;1755718;81;25480;-66
2021/07/21 07:57:11;;;;;;;7.67;3.85;;;;;;;28.15;45.84;100541.21;1754622;81;25623;-66
2021/07/21 07:59:38;;;;;;;7.58;3.92;;;;;;;28.28;44.98;100526.88;1752234;81;25563;-66
2021/07/21 08:02:05;;;;;;;8.28;3.67;;;;;;;28.30;44.77;100531.41;1755329;81;25493;-67
2021/07/21 08:04:32;;;;;;;5.78;3.92;;;;;;;28.38;43.55;100529.88;1755485;81;27314;-66
2021/07/21 08:06:58;;;;;;;9.90;4.03;;;;;;;28.36;43.92;100522.56;1754774;81;25502;-65
2021/07/21 08:09:24;;;;;;;7.78;3.40;;;;;;;28.47;43.36;100528.11;1751927;81;25514;-67
2021/07/21 08:11:57;;;;;;;6.30;3.17;;;;;;;28.58;43.27;100520.19;1753329;81;25640;-66
2021/07/21 08:14:23;;;;;;;5.95;3.65;;;;;;;28.71;43.12;100526.69;1741464;82;25514;-66
2021/07/21 08:16:51;;;;;;;5.90;3.72;;;;;;;28.81;43.13;100531.25;1755018;81;27940;-66
2021/07/21 08:19:19;;;;;;;5.35;3.52;;;;;;;29.00;42.86;100533.05;1755166;81;25512;-66
2021/07/21 08:21:46;;;;;;;5.42;2.92;;;;;;;29.20;42.72;100538.59;1749350;81;25526;-66
2021/07/21 08:24:14;;;;;;;7.65;2.83;;;;;;;29.40;41.87;100527.41;1754820;81;26219;-66
2021/07/21 08:26:43;;;;;;;4.07;2.93;;;;;;;29.56;40.58;100530.84;1753937;81;25573;-66
2021/07/21 08:29:10;;;;;;;5.42;3.02;;;;;;;29.65;40.47;100528.22;1752664;81;27914;-66
2021/07/21 08:31:37;;;;;;;8.73;3.60;;;;;;;29.64;39.94;100523.08;1752762;81;25489;-66
2021/07/21 08:34:08;;;;;;;62.62;59.27;;;;;;;29.71;39.69;100526.49;1729225;81;25484;-75
2021/07/21 08:36:35;;;;;;;7.35;3.15;;;;;;;29.95;40.17;100530.48;1730642;81;25661;-73
2021/07/21 08:39:05;;;;;;;5.47;3.15;;;;;;;30.27;39.77;100531.67;1733464;81;25497;-65
2021/07/21 08:41:34;;;;;;;4.00;3.15;;;;;;;30.52;39.78;100531.80;1730173;81;28018;-73
2021/07/21 08:44:01;;;;;;;4.55;3.00;;;;;;;30.79;38.96;100529.27;1729138;81;25519;-73
2021/07/21 08:46:27;;;;;;;5.85;4.00;;;;;;;30.97;38.62;100531.55;1732134;81;25505;-73
2021/07/21 08:48:54;;;;;;;6.33;3.65;;;;;;;31.05;37.45;100530.73;1726809;81;25806;-73
2021/07/21 08:51:23;;;;;;;5.62;3.30;;;;;;;31.02;37.51;100533.01;1731641;81;25461;-73
2021/07/21 08:53:51;;;;;;;4.92;3.33;;;;;;;31.02;37.12;100540.80;1728798;81;27354;-73
2021/07/21 08:56:19;;;;;;;9.47;3.70;;;;;;;31.15;37.04;100541.41;1704723;81;25635;-73
2021/07/21 08:58:47;;;;;;;6.72;3.02;;;;;;;31.18;36.08;100539.13;1724093;81;25838;-73
2021/07/21 09:01:15;;;;;;;4.55;3.00;;;;;;;31.25;36.72;100542.48;1726817;81;26164;-73
2021/07/21 09:03:42;;;;;;;4.53;3.20;;;;;;;31.49;36.33;100531.59;1731311;81;25487;-73
2021/07/21 09:06:12;;;;;;;9.00;4.47;;;;;;;31.65;35.89;100538.47;1731967;81;27844;-73
2021/07/21 09:08:38;;;;;;;3.35;2.83;;;;;;;31.89;35.56;100539.48;1729924;81;25486;-73
2021/07/21 09:11:05;;;;;;;4.80;3.22;;;;;;;31.96;34.83;100528.86;1728638;81;25546;-73
2021/07/21 09:13:36;;;;;;;6.72;3.30;;;;;;;32.10;34.78;100526.21;1733386;81;26296;-66
2021/07/21 09:16:06;;;;;;;4.33;3.00;;;;;;;32.35;34.59;100527.34;1726924;81;25483;-66
2021/07/21 09:18:54;;;;;;;5.12;3.17;;;;;;;32.47;34.31;100529.91;1710062;81;27350;-65
2021/07/21 09:21:22;;;;;;;5.80;3.13;;;;;;;32.56;34.24;100521.60;1727470;81;25441;-66
2021/07/21 09:23:52;;;;;;;4.85;3.22;;;;;;;32.31;33.02;100528.09;1730623;81;25532;-66
2021/07/21 09:26:32;;;;;;;6.80;3.50;;;;;;;32.27;33.10;100527.45;1735964;81;26144;-66
2021/07/21 09:29:00;;;;;;;6.20;3.40;;;;;;;32.17;32.85;100524.56;1730619;81;25612;-66
2021/07/21 09:31:39;;;;;;;5.97;3.30;;;;;;;32.20;33.61;100529.25;1722605;81;27280;-73
2021/07/21 09:34:20;;;;;;;5.90;3.20;;;;;;;32.38;32.96;100536.23;1752815;81;25727;-73
2021/07/21 09:36:47;;;;;;;3.60;2.92;;;;;;;32.40;32.64;100523.95;1750263;81;25557;-73
2021/07/21 09:39:15;;;;;;;6.35;3.35;;;;;;;32.57;32.78;100523.95;1753751;81;25600;-73
2021/07/21 09:41:52;;;;;;;4.00;3.10;;;;;;;32.72;32.53;100522.80;1753520;81;25595;-74
2021/07/21 09:44:19;;;;;;;5.55;3.22;;;;;;;32.66;32.45;100527.45;1752838;81;28390;-73
2021/07/21 09:46:45;;;;;;;4.90;3.15;;;;;;;32.68;32.16;100528.40;1717701;82;25591;-73
2021/07/21 09:49:19;;;;;;;7.70;3.10;;;;;;;32.56;32.52;100530.00;1753610;81;25773;-66
2021/07/21 09:51:46;;;;;;;7.25;3.22;;;;;;;32.61;32.21;100532.23;1753377;81;25801;-66
2021/07/21 09:54:20;;;;;;;7.35;3.52;;;;;;;32.62;32.52;100529.59;1753698;81;25873;-66
2021/07/21 09:56:50;;;;;;;5.75;3.25;;;;;;;32.68;31.49;100536.17;1737058;82;27585;-66
2021/07/21 09:59:25;;;;;;;5.67;3.30;;;;;;;32.68;30.78;100536.80;1753455;81;25474;-66
2021/07/21 10:01:53;;;;;;;5.50;3.15;;;;;;;32.66;31.21;100530.25;1751126;81;25562;-66
2021/07/21 10:04:38;;;;;;;6.83;3.37;;;;;;;32.47;31.12;100529.31;1749160;81;25599;-66
2021/07/21 10:07:37;;;;;;;6.33;3.85;;;;;;;32.51;31.28;100535.55;1749413;81;25811;-66
2021/07/21 10:09:48;;;;;;;6.33;4.08;;;;;;;32.33;30.79;100531.21;1728779;81;27312;-66
2021/07/21 10:12:19;;;;;;;7.92;3.52;;;;;;;32.00;30.76;100531.53;1753694;81;26026;-66
2021/07/21 10:14:59;;;;;;;5.30;3.17;;;;;;;32.08;31.75;100530.69;1749689;81;25587;-66
2021/07/21 10:17:26;;;;;;;6.58;3.55;;;;;;;32.38;32.28;100531.41;1749433;81;25795;-66
2021/07/21 10:19:54;;;;;;;5.25;3.27;;;;;;;32.65;30.68;100531.48;1753663;81;25525;-66
2021/07/21 10:22:21;;;;;;;10.95;3.10;;;;;;;32.42;30.30;100529.09;1753661;81;27394;-72
2021/07/21 10:24:48;;;;;;;5.75;3.52;;;;;;;32.54;31.01;100529.05;1750020;81;25553;-72
2021/07/21 10:27:17;;;;;;;4.47;3.20;;;;;;;32.79;30.59;100520.98;1753627;81;25497;-73
2021/07/21 10:29:45;;;;;;;3.65;2.62;;;;;;;32.99;30.50;100525.61;1735101;82;25719;-73
2021/07/21 10:32:14;;;;;;;5.37;2.95;;;;;;;33.30;30.49;100529.81;1752158;81;25541;-72
2021/07/21 10:34:42;;;;;;;7.00;2.65;;;;;;;33.52;30.04;100529.59;1747602;81;27437;-73
2021/07/21 10:37:10;;;;;;;15.30;14.07;;;;;;;33.58;29.27;100528.53;1743124;81;25587;-73
2021/07/21 10:39:38;;;;;;;59.60;56.42;;;;;;;33.55;29.00;100535.05;1745821;81;25468;-73
2021/07/21 10:42:11;;;;;;;10.83;3.03;;;;;;;33.50;29.41;100530.05;1746741;81;25649;-73
2021/07/21 10:44:37;;;;;;;4.53;3.12;;;;;;;33.45;29.23;100536.27;1746906;81;25504;-72
2021/07/21 10:47:25;;;;;;;5.90;4.20;;;;;;;33.17;28.84;100531.16;1725511;81;28376;-72
2021/07/21 10:52:40;;;;;;;58.90;55.55;;;;;;;33.34;28.77;100519.89;1632488;86;25629;-66
2021/07/21 10:55:07;;;;;;;59.58;55.85;;;;;;;33.21;29.19;100531.19;1611484;87;25708;-66
2021/07/21 11:00:34;;;;;;;58.85;55.55;;;;;;;32.75;28.62;100523.30;1612564;88;27301;-66
2021/07/21 11:03:23;;;;;;;59.05;56.02;;;;;;;32.35;28.92;100535.73;1590743;88;25731;-66
2021/07/21 11:06:08;;;;;;;59.55;56.42;;;;;;;32.24;29.60;100534.72;1602459;87;25650;-66
2021/07/21 11:08:48;;;;;;;58.48;55.25;;;;;;;32.10;29.82;100524.81;1638667;86;25621;-72
2021/07/21 11:11:22;;;;;;;4.17;3.45;;;;;;;32.23;30.36;100526.78;1629426;87;25548;-73
2021/07/21 11:14:00;;;;;;;59.67;56.45;;;;;;;32.36;30.78;100527.52;1629383;86;28004;-73
2021/07/21 11:16:53;;;;;;;60.28;56.77;;;;;;;32.66;30.36;100527.45;1638625;86;25570;-72
2021/07/21 11:19:31;;;;;;;60.03;56.98;;;;;;;32.50;29.83;100533.20;1636415;86;25772;-72
2021/07/21 11:22:03;;;;;;;62.10;58.17;;;;;;;32.02;29.33;100530.45;1612362;86;25640;-72
2021/07/21 11:24:34;;;;;;;60.20;56.73;;;;;;;31.47;29.65;100538.40;1636978;86;25557;-72
2021/07/21 11:27:01;;;;;;;60.98;57.45;;;;;;;31.06;30.30;100538.66;1630434;86;27548;-72
2021/07/21 11:29:33;;;;;;;64.20;60.50;;;;;;;30.83;30.54;100531.95;1680220;81;25690;-72
2021/07/21 11:32:01;;;;;;;65.15;61.23;;;;;;;30.82;31.07;100545.13;1742580;81;25527;-72
2021/07/21 11:34:37;;;;;;;61.55;58.28;;;;;;;30.81;31.32;100541.38;1753629;80;26176;-72
2021/07/21 11:37:28;;;;;;;61.63;58.30;;;;;;;30.77;31.51;100540.69;1751546;81;25559;-72
2021/07/21 11:39:58;;;;;;;63.10;59.67;;;;;;;30.69;31.72;100533.14;1753763;81;27350;-72
2021/07/21 11:45:12;;;;;;;61.83;58.52;;;;;;;30.89;31.52;100544.14;1750585;81;25599;-72
2021/07/21 11:47:46;;;;;;;63.87;60.35;;;;;;;30.69;31.47;100538.73;1750493;81;25661;-66
2021/07/21 11:50:22;;;;;;;62.23;58.80;;;;;;;30.34;31.63;100541.23;1753865;81;25493;-65
2021/07/21 11:53:07;;;;;;;64.07;60.67;;;;;;;30.11;32.01;100531.87;1753748;81;28032;-66
2021/07/21 11:55:35;;;;;;;62.38;58.98;;;;;;;30.03;33.05;100531.11;1753339;81;25632;-66
2021/07/21 11:58:14;;;;;;;65.10;61.40;;;;;;;30.08;32.55;100532.74;1754096;81;25504;-72
2021/07/21 12:00:49;;;;;;;64.07;60.60;;;;;;;30.11;32.87;100531.87;1738781;82;26250;-66
2021/07/21 12:03:16;;;;;;;63.05;59.75;;;;;;;30.38;33.01;100532.20;1638973;84;25686;-66
2021/07/21 12:05:56;;;;;;;61.92;58.73;;;;;;;30.51;31.78;100533.04;1755911;81;27320;-73
2021/07/21 12:08:23;;;;;;;63.20;59.90;;;;;;;30.34;31.62;100532.27;1749939;81;25549;-72
2021/07/21 12:10:50;;;;;;;62.05;58.75;;;;;;;30.10;31.57;100528.91;1731244;81;25467;-72
2021/07/21 12:13:20;;;;;;;63.20;59.83;;;;;;;30.07;32.02;100538.76;1752961;81;25587;-66
2021/07/21 12:15:45;;;;;;;63.38;59.73;;;;;;;30.08;32.15;100540.34;1754389;81;25543;-66
2021/07/21 12:18:14;;;;;;;63.13;59.80;;;;;;;30.06;32.35;100533.80;1757752;81;27366;-66
2021/07/21 12:20:45;;;;;;;63.20;59.73;;;;;;;30.09;32.43;100537.11;1756543;81;25617;-66
2021/07/21 12:23:14;;;;;;;54.60;51.58;;;;;;;30.02;32.25;100540.09;1754749;81;25886;-72
2021/07/21 12:25:41;;;;;;;6.45;3.08;;;;;;;30.21;32.57;100545.37;1750591;81;25651;-72
2021/07/21 12:28:09;;;;;;;4.15;2.60;;;;;;;30.29;32.27;100543.97;1749093;82;25501;-72
2021/07/21 12:30:36;;;;;;;3.98;2.90;;;;;;;30.24;32.12;100540.91;1751052;81;27875;-66
2021/07/21 12:33:05;;;;;;;3.98;2.62;;;;;;;30.08;31.91;100542.50;1729227;81;25577;-66
2021/07/21 12:35:32;;;;;;;3.75;2.42;;;;;;;29.85;31.76;100539.91;1754612;81;25480;-66
2021/07/21 12:38:00;;;;;;;6.03;2.80;;;;;;;29.73;31.84;100541.36;1754660;81;26269;-66
2021/07/21 12:40:30;;;;;;;5.00;2.40;;;;;;;29.59;32.07;100541.09;1749083;82;25510;-72
2021/07/21 12:43:01;;;;;;;61.50;58.23;;;;;;;29.52;32.24;100554.59;1725253;83;27088;-72
2021/07/21 12:45:34;;;;;;;62.90;59.70;;;;;;;29.43;32.44;100555.19;1708410;83;25781;-71
2021/07/21 12:48:02;;;;;;;62.35;59.15;;;;;;;29.25;32.40;100553.41;1708507;83;25525;-71
2021/07/21 12:50:36;;;;;;;64.87;61.08;;;;;;;29.11;32.34;100552.30;1744170;82;25757;-72
2021/07/21 12:53:15;;;;;;;64.85;61.33;;;;;;;29.00;32.71;100551.92;1686916;84;25869;-73
2021/07/21 12:55:40;;;;;;;64.20;60.52;;;;;;;28.93;32.86;100552.67;1751725;81;27395;-72
2021/07/21 12:58:16;;;;;;;66.65;62.75;;;;;;;28.76;33.04;100551.81;1753689;81;25528;-72
2021/07/21 13:00:56;;;;;;;66.30;61.70;;;;;;;28.62;33.60;100557.06;1751052;81;25533;-73
2021/07/21 13:03:24;;;;;;;65.03;61.33;;;;;;;28.57;33.84;100551.41;1753010;81;25515;-72
2021/07/21 13:05:54;;;;;;;63.75;60.43;;;;;;;28.50;34.24;100552.88;1754012;81;25438;-73
2021/07/21 13:08:33;;;;;;;64.92;61.23;;;;;;;28.43;34.39;100559.98;1750587;81;27871;-73
2021/07/21 13:11:15;;;;;;;66.95;62.95;;;;;;;28.30;34.28;100543.14;1750432;81;26522;-72
2021/07/21 13:13:57;;;;;;;64.72;60.92;;;;;;;28.06;34.16;100560.42;1734155;82;25871;-73
2021/07/21 13:16:30;;;;;;;66.47;62.55;;;;;;;27.88;34.66;100564.25;1750819;81;26179;-74
2021/07/21 13:19:05;;;;;;;66.77;63.10;;;;;;;27.76;35.05;100559.30;1752967;81;25478;-73
2021/07/21 13:21:36;;;;;;;65.32;61.65;;;;;;;27.66;35.22;100561.02;1753808;81;28029;-72
2021/07/21 13:24:12;;;;;;;64.90;61.37;;;;;;;27.53;35.38;100562.22;1746594;81;25727;-73
2021/07/21 13:26:40;;;;;;;66.22;62.73;;;;;;;27.43;35.54;100564.55;1749894;81;25526;-72
2021/07/21 13:29:15;;;;;;;66.00;62.55;;;;;;;27.39;35.66;100554.08;1753940;81;25790;-72
2021/07/21 13:31:46;;;;;;;66.50;62.62;;;;;;;27.26;35.71;100555.23;1750467;81;25564;-73
2021/07/21 13:34:34;;;;;;;66.45;62.40;;;;;;;27.08;35.92;100559.63;1755612;80;27299;-73
2021/07/21 13:37:05;;;;;;;67.65;63.95;;;;;;;27.05;36.27;100559.06;1745870;81;25519;-72
2021/07/21 13:39:43;;;;;;;66.90;62.98;;;;;;;27.00;36.50;100560.91;1724155;81;25476;-73
2021/07/21 13:42:16;;;;;;;66.28;62.48;;;;;;;27.03;36.80;100558.70;1749023;81;25587;-73
2021/07/21 13:44:45;;;;;;;67.17;63.45;;;;;;;27.14;36.62;100557.16;1757950;81;25504;-73
2021/07/21 13:47:11;;;;;;;66.55;62.88;;;;;;;27.18;36.20;100567.63;1756939;81;28445;-73
2021/07/21 13:49:43;;;;;;;66.35;62.55;;;;;;;27.29;35.32;100569.67;1756633;81;25711;-73
2021/07/21 13:52:15;;;;;;;65.85;62.35;;;;;;;27.29;34.69;100566.90;1757429;81;25521;-73
2021/07/21 13:54:45;;;;;;;67.05;63.40;;;;;;;27.18;34.87;100574.58;1743037;81;25792;-73
2021/07/21 13:57:18;;;;;;;65.50;61.70;;;;;;;27.21;35.18;100573.75;1757120;81;25455;-65
2021/07/21 13:59:46;;;;;;;66.92;63.13;;;;;;;27.17;35.49;100576.55;1755468;81;27374;-71
2021/07/21 14:02:21;;;;;;;65.50;62.00;;;;;;;27.14;35.46;100566.88;1725802;81;25892;-65
2021/07/21 14:04:44;;;;;;;65.72;62.23;;;;;;;27.15;35.87;100565.69;1712714;83;25550;-65
2021/07/21 14:07:11;;;;;;;67.27;63.45;;;;;;;27.20;35.79;100566.61;1750562;81;25652;-71
2021/07/21 14:09:37;;;;;;;66.55;62.88;;;;;;;27.20;35.99;100573.55;1731915;81;25492;-73
2021/07/21 14:12:05;;;;;;;67.60;63.80;;;;;;;27.21;35.99;100569.58;1735565;81;27966;-73
2021/07/21 14:14:31;;;;;;;68.05;64.03;;;;;;;27.23;35.95;100574.72;1756646;81;25557;-73
2021/07/21 14:16:58;;;;;;;64.90;61.05;;;;;;;27.23;36.24;100571.94;1740227;82;25459;-73
2021/07/21 14:19:25;;;;;;;67.15;63.13;;;;;;;27.14;35.82;100569.07;1757488;81;25567;-73
2021/07/21 14:21:53;;;;;;;65.87;61.83;;;;;;;27.06;36.35;100565.42;1757293;81;25476;-72
2021/07/21 14:24:21;;;;;;;65.57;61.63;;;;;;;27.00;36.51;100567.84;1715252;83;27350;-73
2021/07/21 14:26:48;;;;;;;64.95;61.05;;;;;;;27.01;36.76;100560.49;1753299;81;25438;-72
2021/07/21 14:29:15;;;;;;;65.10;61.42;;;;;;;27.09;36.78;100557.62;1727456;81;25503;-73
2021/07/21 14:31:41;;;;;;;65.72;62.15;;;;;;;27.16;36.76;100559.72;1729108;81;25598;-73
2021/07/21 14:34:11;;;;;;;65.67;62.17;;;;;;;27.30;37.17;100551.83;1758883;81;25498;-70
2021/07/21 14:36:38;;;;;;;64.40;60.95;;;;;;;27.45;36.86;100544.66;1752943;81;29036;-74
2021/07/21 14:39:06;;;;;;;65.80;62.30;;;;;;;27.52;36.35;100553.70;1753820;81;25593;-74
2021/07/21 14:41:33;;;;;;;66.90;62.85;;;;;;;27.61;36.75;100546.22;1740594;82;25557;-72
2021/07/21 14:44:00;;;;;;;65.70;62.00;;;;;;;27.79;37.00;100548.73;1743393;82;25637;-73
2021/07/21 14:46:26;;;;;;;66.35;62.55;;;;;;;28.00;36.70;100549.62;1742292;82;25531;-73
2021/07/21 14:48:53;;;;;;;63.38;60.00;;;;;;;28.19;36.81;100546.09;1742708;82;27219;-73
2021/07/21 14:51:19;;;;;;;66.15;62.45;;;;;;;28.23;36.09;100542.66;1705131;82;25599;-73
2021/07/21 14:53:46;;;;;;;66.28;62.58;;;;;;;28.16;35.65;100549.72;1743372;82;25545;-73
2021/07/21 14:56:13;;;;;;;65.72;62.20;;;;;;;28.02;35.67;100554.92;1740111;82;25706;-66
2021/07/21 14:58:39;;;;;;;64.80;61.10;;;;;;;27.93;35.88;100550.52;1746758;81;25539;-67
2021/07/21 15:01:06;;;;;;;64.90;61.30;;;;;;;27.90;36.12;100550.72;1743433;82;27349;-66
2021/07/21 15:03:32;;;;;;;47.85;44.93;;;;;;;27.78;36.26;100544.38;1746933;82;25645;-66
2021/07/21 15:05:58;;;;;;;7.28;4.15;;;;;;;27.68;36.42;100549.49;1740993;81;25591;-66
2021/07/21 15:08:26;;;;;;;13.03;3.95;;;;;;;27.49;36.54;100544.03;1739369;82;25785;-66
2021/07/21 15:10:53;;;;;;;6.55;3.60;;;;;;;27.36;36.91;100546.58;1707677;82;25577;-66
2021/07/21 15:13:19;;;;;;;6.12;3.45;;;;;;;27.27;37.39;100557.40;1741062;82;27296;-66
2021/07/21 15:15:46;;;;;;;7.08;4.33;;;;;;;27.13;37.37;100561.94;1718928;82;25548;-73
2021/07/21 15:18:13;;;;;;;5.25;3.60;;;;;;;27.06;37.83;100559.25;1739455;82;25531;-74
2021/07/21 15:20:39;;;;;;;65.62;61.60;;;;;;;27.00;38.12;100555.36;1740559;82;25685;-73
2021/07/21 15:23:06;;;;;;;65.47;61.73;;;;;;;26.88;38.15;100551.14;1740081;82;25572;-72
2021/07/21 15:25:32;;;;;;;70.52;66.22;;;;;;;26.75;38.32;100556.45;1739345;81;27396;-71
2021/07/21 15:27:59;;;;;;;70.05;65.62;;;;;;;26.60;38.45;100555.02;1740515;82;25588;-73
2021/07/21 15:30:25;;;;;;;69.95;65.83;;;;;;;26.56;38.74;100557.02;1735646;82;25565;-72
2021/07/21 15:32:52;;;;;;;67.92;64.03;;;;;;;26.56;38.99;100561.18;1738172;82;25600;-72
2021/07/21 15:35:20;;;;;;;66.77;62.85;;;;;;;26.54;39.08;100560.20;1727041;82;25436;-71
2021/07/21 15:37:47;;;;;;;66.77;63.08;;;;;;;26.59;39.39;100554.81;1727143;82;27269;-72
2021/07/21 15:40:17;;;;;;;66.37;62.20;;;;;;;26.63;39.34;100551.45;1723241;82;25461;-73
2021/07/21 15:42:44;;;;;;;65.37;61.70;;;;;;;26.60;38.91;100554.41;1716624;82;25567;-66
2021/07/21 15:45:11;;;;;;;66.57;62.78;;;;;;;26.57;38.87;100553.06;1725172;81;26526;-66
2021/07/21 15:47:39;;;;;;;64.05;60.50;;;;;;;26.51;38.74;100556.08;1739729;81;25542;-66
2021/07/21 15:50:12;;;;;;;66.05;62.45;;;;;;;26.44;38.55;100552.20;1720577;82;27312;-66
2021/07/21 15:52:43;;;;;;;66.37;62.75;;;;;;;26.40;38.56;100552.82;1723272;81;25554;-65
2021/07/21 15:55:11;;;;;;;11.03;5.62;;;;;;;26.38;38.26;100551.67;1739240;81;25479;-65
2021/07/21 15:57:38;;;;;;;6.50;3.40;;;;;;;26.40;38.47;100554.81;1711079;81;25621;-65
2021/07/21 16:00:13;;;;;;;6.75;2.80;;;;;;;26.36;38.01;100556.23;1738736;81;25530;-71
2021/07/21 16:02:40;;;;;;;6.55;3.15;;;;;;;26.31;38.10;100552.53;1737257;81;27850;-72
2021/07/21 16:05:16;;;;;;;4.35;2.90;;;;;;;26.20;38.03;100548.45;1726671;81;25519;-71
2021/07/21 16:07:45;;;;;;;5.25;3.08;;;;;;;26.10;37.96;100546.56;1735261;81;25573;-72
2021/07/21 16:10:16;;;;;;;7.17;3.30;;;;;;;25.97;38.11;100547.68;1736764;81;25636;-72
2021/07/21 16:12:43;;;;;;;6.47;2.60;;;;;;;25.87;38.30;100547.92;1740695;81;25485;-72
2021/07/21 16:15:17;;;;;;;3.37;2.65;;;;;;;25.80;38.46;100547.20;1737340;81;27939;-72
2021/07/21 16:17:44;;;;;;;4.45;2.90;;;;;;;25.73;38.75;100545.27;1733494;81;25502;-72
2021/07/21 16:20:12;;;;;;;3.67;2.80;;;;;;;25.68;39.04;100543.71;1736256;81;25483;-72
2021/07/21 16:22:39;;;;;;;5.33;2.83;;;;;;;25.64;39.27;100541.58;1736104;81;25687;-72
2021/07/21 16:25:25;;;;;;;4.72;2.72;;;;;;;25.59;39.46;100542.00;1737753;81;25198;-71
2021/07/21 16:27:52;;;;;;;5.67;2.87;;;;;;;25.51;39.56;100539.09;1736059;81;27326;-72
2021/07/21 16:30:19;;;;;;;66.45;62.65;;;;;;;25.42;39.75;100541.50;1725350;81;25508;-64
2021/07/21 16:32:46;;;;;;;71.25;67.35;;;;;;;25.37;40.13;100530.85;1732788;81;25465;-62
2021/07/21 16:35:15;;;;;;;73.52;69.30;;;;;;;25.31;40.00;100532.66;1737779;81;25634;-64
2021/07/21 16:37:43;;;;;;;40.43;38.08;;;;;;;25.30;40.34;100535.26;1737348;81;25538;-63
2021/07/21 16:40:11;;;;;;;4.97;2.55;;;;;;;25.25;40.29;100530.11;1739017;82;27292;-61
2021/07/21 16:42:39;;;;;;;6.40;3.05;;;;;;;25.20;40.36;100538.84;1737836;82;25523;-60
2021/07/21 16:45:09;;;;;;;5.08;2.83;;;;;;;25.19;40.54;100539.24;1730355;82;25500;-62
2021/07/21 16:47:36;;;;;;;12.80;7.67;;;;;;;25.25;40.59;100536.23;1735781;82;25673;-61
2021/07/21 16:50:05;;;;;;;11.15;7.03;;;;;;;25.26;40.48;100534.47;1730110;82;25526;-61
2021/07/21 16:52:32;;;;;;;4.65;3.02;;;;;;;25.20;40.60;100536.08;1734194;82;27407;-66
2021/07/21 16:54:59;;;;;;;7.40;3.30;;;;;;;25.08;40.66;100540.66;1734026;81;25217;-67
2021/07/21 16:57:27;;;;;;;4.60;3.47;;;;;;;24.95;40.72;100549.41;1736251;82;25572;-67
2021/07/21 16:59:55;;;;;;;3.22;2.67;;;;;;;24.84;40.87;100540.36;1732120;82;25609;-67
2021/07/21 17:02:21;;;;;;;4.37;3.15;;;;;;;24.73;40.96;100539.02;1755959;81;25532;-67
2021/07/21 17:04:47;;;;;;;5.05;3.33;;;;;;;24.67;41.24;100544.78;1744481;81;27317;-65
2021/07/21 17:07:14;;;;;;;6.72;3.22;;;;;;;24.63;41.30;100552.89;1743072;81;25678;-65